sensor_id;sensor_type;location;lat;lon;timestamp;temperature;humidity
22436;DHT22;11385;50.822;4.324;2023-02-20T00:00:04;7.30;99.90
22436;DHT22;11385;50.822;4.324;2023-02-20T00:02:32;7.50;99.90
22436;DHT22;11385;50.822;4.324;2023-02-20T00:04:58;7.50;99.90
22436;DHT22;11385;50.822;4.324;2023-02-20T00:07:25;7.40;99.90
22436;DHT22;11385;50.822;4.324;2023-02-20T00:09:52;7.40;99.90
22436;DHT22;11385;50.822;4.324;2023-02-20T00:12:18;7.30;99.90
22436;DHT22;11385;50.822;4.324;2023-02-20T00:14:45;7.40;99.90
22436;DHT22;11385;50.822;4.324;2023-02-20T00:17:17;7.50;99.90
22436;DHT22;11385;50.822;4.324;2023-02-20T00:19:59;7.40;99.90
22436;DHT22;11385;50.822;4.324;2023-02-20T00:22:25;7.50;99.90
22436;DHT22;11385;50.822;4.324;2023-02-20T00:24:52;7.30;99.90
22436;DHT22;11385;50.822;4.324;2023-02-20T00:27:19;7.30;99.90
22436;DHT22;11385;50.822;4.324;2023-02-20T00:29:46;7.20;99.90
22436;DHT22;11385;50.822;4.324;2023-02-20T00:32:13;7.20;99.90
22436;DHT22;11385;50.822;4.324;2023-02-20T00:34:39;7.20;99.90
22436;DHT22;11385;50.822;4.324;2023-02-20T00:37:06;7.20;99.90
22436;DHT22;11385;50.822;4.324;2023-02-20T00:39:34;7.30;99.90
22436;DHT22;11385;50.822;4.324;2023-02-20T00:42:00;7.10;99.90
22436;DHT22;11385;50.822;4.324;2023-02-20T00:44:28;7.20;99.90
22436;DHT22;11385;50.822;4.324;2023-02-20T00:46:55;7.30;99.90
22436;DHT22;11385;50.822;4.324;2023-02-20T00:49:21;7.20;99.90
22436;DHT22;11385;50.822;4.324;2023-02-20T00:51:48;7.30;99.90
22436;DHT22;11385;50.822;4.324;2023-02-20T00:54:15;7.40;99.90
22436;DHT22;11385;50.822;4.324;2023-02-20T00:56:42;7.30;99.90
22436;DHT22;11385;50.822;4.324;2023-02-20T00:59:09;7.30;99.90
22436;DHT22;11385;50.822;4.324;2023-02-20T01:01:35;7.20;99.90
22436;DHT22;11385;50.822;4.324;2023-02-20T01:04:13;7.40;99.90
22436;DHT22;11385;50.822;4.324;2023-02-20T01:06:52;7.30;99.90
22436;DHT22;11385;50.822;4.324;2023-02-20T01:09:19;7.20;99.90
22436;DHT22;11385;50.822;4.324;2023-02-20T01:11:45;7.10;99.90
22436;DHT22;11385;50.822;4.324;2023-02-20T01:14:12;7.20;99.90
22436;DHT22;11385;50.822;4.324;2023-02-20T01:16:45;7.20;99.90
22436;DHT22;11385;50.822;4.324;2023-02-20T01:19:13;7.20;99.90
22436;DHT22;11385;50.822;4.324;2023-02-20T01:21:40;7.20;99.90
22436;DHT22;11385;50.822;4.324;2023-02-20T01:24:06;7.10;99.90
22436;DHT22;11385;50.822;4.324;2023-02-20T01:26:33;7.00;99.90
22436;DHT22;11385;50.822;4.324;2023-02-20T01:29:03;7.10;99.90
22436;DHT22;11385;50.822;4.324;2023-02-20T01:31:30;7.10;99.90
22436;DHT22;11385;50.822;4.324;2023-02-20T01:33:57;7.00;99.90
22436;DHT22;11385;50.822;4.324;2023-02-20T01:36:24;7.00;99.90
22436;DHT22;11385;50.822;4.324;2023-02-20T01:38:53;7.00;99.90
22436;DHT22;11385;50.822;4.324;2023-02-20T01:41:20;7.00;99.90
22436;DHT22;11385;50.822;4.324;2023-02-20T01:43:47;7.00;99.90
22436;DHT22;11385;50.822;4.324;2023-02-20T01:49:12;7.20;99.90
22436;DHT22;11385;50.822;4.324;2023-02-20T01:51:45;7.20;99.90
22436;DHT22;11385;50.822;4.324;2023-02-20T01:54:16;7.20;99.90
22436;DHT22;11385;50.822;4.324;2023-02-20T01:56:44;7.30;99.90
22436;DHT22;11385;50.822;4.324;2023-02-20T01:59:13;7.20;99.90
22436;DHT22;11385;50.822;4.324;2023-02-20T02:01:41;7.10;99.90
22436;DHT22;11385;50.822;4.324;2023-02-20T02:04:10;7.20;99.90
22436;DHT22;11385;50.822;4.324;2023-02-20T02:06:40;7.20;99.90
22436;DHT22;11385;50.822;4.324;2023-02-20T02:09:20;7.40;99.90
22436;DHT22;11385;50.822;4.324;2023-02-20T02:11:48;7.30;99.90
22436;DHT22;11385;50.822;4.324;2023-02-20T02:14:15;7.50;99.90
22436;DHT22;11385;50.822;4.324;2023-02-20T02:16:51;7.60;99.90
22436;DHT22;11385;50.822;4.324;2023-02-20T02:22:16;7.30;99.90
22436;DHT22;11385;50.822;4.324;2023-02-20T02:25:18;7.40;99.90
22436;DHT22;11385;50.822;4.324;2023-02-20T02:27:39;7.50;99.90
22436;DHT22;11385;50.822;4.324;2023-02-20T02:30:32;7.60;99.90
22436;DHT22;11385;50.822;4.324;2023-02-20T02:33:01;7.90;99.90
22436;DHT22;11385;50.822;4.324;2023-02-20T02:38:24;7.80;99.90
22436;DHT22;11385;50.822;4.324;2023-02-20T02:41:05;7.70;99.90
22436;DHT22;11385;50.822;4.324;2023-02-20T02:43:47;7.60;99.90
22436;DHT22;11385;50.822;4.324;2023-02-20T02:46:22;7.60;99.90
22436;DHT22;11385;50.822;4.324;2023-02-20T02:48:55;7.60;99.90
22436;DHT22;11385;50.822;4.324;2023-02-20T02:51:25;7.60;99.90
22436;DHT22;11385;50.822;4.324;2023-02-20T02:56:32;7.60;99.90
22436;DHT22;11385;50.822;4.324;2023-02-20T02:58:56;7.50;99.90
22436;DHT22;11385;50.822;4.324;2023-02-20T03:01:24;7.60;99.90
22436;DHT22;11385;50.822;4.324;2023-02-20T03:03:54;7.60;99.90
22436;DHT22;11385;50.822;4.324;2023-02-20T03:06:29;7.40;99.90
22436;DHT22;11385;50.822;4.324;2023-02-20T03:09:03;7.50;99.90
22436;DHT22;11385;50.822;4.324;2023-02-20T03:11:31;7.60;99.90
22436;DHT22;11385;50.822;4.324;2023-02-20T03:14:03;7.60;99.90
22436;DHT22;11385;50.822;4.324;2023-02-20T03:17:05;7.60;99.90
22436;DHT22;11385;50.822;4.324;2023-02-20T03:19:41;7.70;99.90
22436;DHT22;11385;50.822;4.324;2023-02-20T03:22:12;7.70;99.90
22436;DHT22;11385;50.822;4.324;2023-02-20T03:24:41;7.70;99.90
22436;DHT22;11385;50.822;4.324;2023-02-20T03:27:15;7.70;99.90
22436;DHT22;11385;50.822;4.324;2023-02-20T03:29:42;7.70;99.90
22436;DHT22;11385;50.822;4.324;2023-02-20T03:32:10;7.70;99.90
22436;DHT22;11385;50.822;4.324;2023-02-20T03:34:46;7.80;99.90
22436;DHT22;11385;50.822;4.324;2023-02-20T03:37:20;7.80;99.90
22436;DHT22;11385;50.822;4.324;2023-02-20T03:39:57;7.70;99.90
22436;DHT22;11385;50.822;4.324;2023-02-20T03:42:32;7.70;99.90
22436;DHT22;11385;50.822;4.324;2023-02-20T03:45:08;7.90;99.90
22436;DHT22;11385;50.822;4.324;2023-02-20T03:47:38;7.90;99.90
22436;DHT22;11385;50.822;4.324;2023-02-20T03:50:07;8.00;99.90
22436;DHT22;11385;50.822;4.324;2023-02-20T03:52:41;8.00;99.90
22436;DHT22;11385;50.822;4.324;2023-02-20T03:55:08;7.80;99.90
22436;DHT22;11385;50.822;4.324;2023-02-20T03:57:40;7.70;99.90
22436;DHT22;11385;50.822;4.324;2023-02-20T04:00:12;7.70;99.90
22436;DHT22;11385;50.822;4.324;2023-02-20T04:02:42;7.70;99.90
22436;DHT22;11385;50.822;4.324;2023-02-20T04:05:17;7.80;99.90
22436;DHT22;11385;50.822;4.324;2023-02-20T04:07:52;7.70;99.90
22436;DHT22;11385;50.822;4.324;2023-02-20T04:10:25;7.80;99.90
22436;DHT22;11385;50.822;4.324;2023-02-20T04:12:53;7.70;99.90
22436;DHT22;11385;50.822;4.324;2023-02-20T04:15:23;7.70;99.90
22436;DHT22;11385;50.822;4.324;2023-02-20T04:18:01;7.70;99.90
22436;DHT22;11385;50.822;4.324;2023-02-20T04:20:30;7.80;99.90
22436;DHT22;11385;50.822;4.324;2023-02-20T04:23:00;7.70;99.90
22436;DHT22;11385;50.822;4.324;2023-02-20T04:25:37;7.70;99.90
22436;DHT22;11385;50.822;4.324;2023-02-20T04:28:04;7.80;99.90
22436;DHT22;11385;50.822;4.324;2023-02-20T04:30:32;7.80;99.90
22436;DHT22;11385;50.822;4.324;2023-02-20T04:32:59;7.90;99.90
22436;DHT22;11385;50.822;4.324;2023-02-20T04:35:26;7.90;99.90
22436;DHT22;11385;50.822;4.324;2023-02-20T04:37:52;7.80;99.90
22436;DHT22;11385;50.822;4.324;2023-02-20T04:40:21;7.80;99.90
22436;DHT22;11385;50.822;4.324;2023-02-20T04:42:48;7.90;99.90
22436;DHT22;11385;50.822;4.324;2023-02-20T04:45:15;7.80;99.90
22436;DHT22;11385;50.822;4.324;2023-02-20T04:47:45;7.70;99.90
22436;DHT22;11385;50.822;4.324;2023-02-20T04:50:18;7.80;99.90
22436;DHT22;11385;50.822;4.324;2023-02-20T04:52:45;7.80;99.90
22436;DHT22;11385;50.822;4.324;2023-02-20T04:55:11;7.80;99.90
22436;DHT22;11385;50.822;4.324;2023-02-20T04:57:38;7.80;99.90
22436;DHT22;11385;50.822;4.324;2023-02-20T05:00:06;7.90;99.90
22436;DHT22;11385;50.822;4.324;2023-02-20T05:02:34;8.00;99.90
22436;DHT22;11385;50.822;4.324;2023-02-20T05:05:03;7.90;99.90
22436;DHT22;11385;50.822;4.324;2023-02-20T05:07:32;7.80;99.90
22436;DHT22;11385;50.822;4.324;2023-02-20T05:09:59;7.70;99.90
22436;DHT22;11385;50.822;4.324;2023-02-20T05:12:25;7.80;99.90
22436;DHT22;11385;50.822;4.324;2023-02-20T05:14:52;7.80;99.90
22436;DHT22;11385;50.822;4.324;2023-02-20T05:17:20;7.90;99.90
22436;DHT22;11385;50.822;4.324;2023-02-20T05:19:47;7.90;99.90
22436;DHT22;11385;50.822;4.324;2023-02-20T05:22:14;7.90;99.90
22436;DHT22;11385;50.822;4.324;2023-02-20T05:24:46;8.00;99.90
22436;DHT22;11385;50.822;4.324;2023-02-20T05:27:15;7.90;99.90
22436;DHT22;11385;50.822;4.324;2023-02-20T05:29:46;7.90;99.90
22436;DHT22;11385;50.822;4.324;2023-02-20T05:32:13;7.80;99.90
22436;DHT22;11385;50.822;4.324;2023-02-20T05:34:42;7.70;99.90
22436;DHT22;11385;50.822;4.324;2023-02-20T05:37:10;7.70;99.90
22436;DHT22;11385;50.822;4.324;2023-02-20T05:39:37;7.70;99.90
22436;DHT22;11385;50.822;4.324;2023-02-20T05:42:05;7.60;99.90
22436;DHT22;11385;50.822;4.324;2023-02-20T05:44:32;7.60;99.90
22436;DHT22;11385;50.822;4.324;2023-02-20T05:46:59;7.70;99.90
22436;DHT22;11385;50.822;4.324;2023-02-20T05:49:26;7.80;99.90
22436;DHT22;11385;50.822;4.324;2023-02-20T05:51:57;7.80;99.90
22436;DHT22;11385;50.822;4.324;2023-02-20T05:54:23;7.80;99.90
22436;DHT22;11385;50.822;4.324;2023-02-20T05:56:52;7.80;99.90
22436;DHT22;11385;50.822;4.324;2023-02-20T05:59:21;7.70;99.90
22436;DHT22;11385;50.822;4.324;2023-02-20T06:01:48;7.70;99.90
22436;DHT22;11385;50.822;4.324;2023-02-20T06:04:17;7.70;99.90
22436;DHT22;11385;50.822;4.324;2023-02-20T06:06:44;7.70;99.90
22436;DHT22;11385;50.822;4.324;2023-02-20T06:09:14;7.70;99.90
22436;DHT22;11385;50.822;4.324;2023-02-20T06:11:47;7.70;99.90
22436;DHT22;11385;50.822;4.324;2023-02-20T06:14:10;7.70;99.90
22436;DHT22;11385;50.822;4.324;2023-02-20T06:16:37;7.60;99.90
22436;DHT22;11385;50.822;4.324;2023-02-20T06:19:04;7.70;99.90
22436;DHT22;11385;50.822;4.324;2023-02-20T06:21:31;7.70;99.90
22436;DHT22;11385;50.822;4.324;2023-02-20T06:24:00;7.80;99.90
22436;DHT22;11385;50.822;4.324;2023-02-20T06:26:27;7.80;99.90
22436;DHT22;11385;50.822;4.324;2023-02-20T06:28:54;7.70;99.90
22436;DHT22;11385;50.822;4.324;2023-02-20T06:31:25;7.80;99.90
22436;DHT22;11385;50.822;4.324;2023-02-20T06:33:53;7.70;99.90
22436;DHT22;11385;50.822;4.324;2023-02-20T06:36:24;7.70;99.90
22436;DHT22;11385;50.822;4.324;2023-02-20T06:38:51;7.70;99.90
22436;DHT22;11385;50.822;4.324;2023-02-20T06:41:18;7.70;99.90
22436;DHT22;11385;50.822;4.324;2023-02-20T06:43:45;7.70;99.90
22436;DHT22;11385;50.822;4.324;2023-02-20T06:46:12;7.70;99.90
22436;DHT22;11385;50.822;4.324;2023-02-20T06:48:44;7.60;99.90
22436;DHT22;11385;50.822;4.324;2023-02-20T06:51:11;7.60;99.90
22436;DHT22;11385;50.822;4.324;2023-02-20T06:53:38;7.50;99.90
22436;DHT22;11385;50.822;4.324;2023-02-20T06:56:09;7.50;99.90
22436;DHT22;11385;50.822;4.324;2023-02-20T06:58:36;7.60;99.90
22436;DHT22;11385;50.822;4.324;2023-02-20T07:01:03;7.50;99.90
22436;DHT22;11385;50.822;4.324;2023-02-20T07:03:29;7.60;99.90
22436;DHT22;11385;50.822;4.324;2023-02-20T07:05:56;7.60;99.90
22436;DHT22;11385;50.822;4.324;2023-02-20T07:08:23;7.80;99.90
22436;DHT22;11385;50.822;4.324;2023-02-20T07:10:49;7.80;99.90
22436;DHT22;11385;50.822;4.324;2023-02-20T07:13:16;7.70;99.90
22436;DHT22;11385;50.822;4.324;2023-02-20T07:15:43;7.60;99.90
22436;DHT22;11385;50.822;4.324;2023-02-20T07:18:10;7.60;99.90
22436;DHT22;11385;50.822;4.324;2023-02-20T07:20:37;7.80;99.90
22436;DHT22;11385;50.822;4.324;2023-02-20T07:23:03;7.70;99.90
22436;DHT22;11385;50.822;4.324;2023-02-20T07:25:30;7.80;99.90
22436;DHT22;11385;50.822;4.324;2023-02-20T07:27:56;7.80;99.90
22436;DHT22;11385;50.822;4.324;2023-02-20T07:30:23;7.80;99.90
22436;DHT22;11385;50.822;4.324;2023-02-20T07:32:50;7.80;99.90
22436;DHT22;11385;50.822;4.324;2023-02-20T07:35:17;7.80;99.90
22436;DHT22;11385;50.822;4.324;2023-02-20T07:37:44;7.80;99.90
22436;DHT22;11385;50.822;4.324;2023-02-20T07:40:11;7.90;99.90
22436;DHT22;11385;50.822;4.324;2023-02-20T07:42:38;7.80;99.90
22436;DHT22;11385;50.822;4.324;2023-02-20T07:45:05;7.80;99.90
22436;DHT22;11385;50.822;4.324;2023-02-20T07:47:31;7.70;99.90
22436;DHT22;11385;50.822;4.324;2023-02-20T07:49:58;7.70;99.90
22436;DHT22;11385;50.822;4.324;2023-02-20T07:52:25;7.90;99.90
22436;DHT22;11385;50.822;4.324;2023-02-20T07:54:51;7.90;99.90
22436;DHT22;11385;50.822;4.324;2023-02-20T07:57:18;8.00;99.90
22436;DHT22;11385;50.822;4.324;2023-02-20T07:59:45;8.00;99.90
22436;DHT22;11385;50.822;4.324;2023-02-20T08:02:11;8.10;99.90
22436;DHT22;11385;50.822;4.324;2023-02-20T08:04:38;8.00;99.90
22436;DHT22;11385;50.822;4.324;2023-02-20T08:07:05;8.00;99.90
22436;DHT22;11385;50.822;4.324;2023-02-20T08:09:32;8.00;99.90
22436;DHT22;11385;50.822;4.324;2023-02-20T08:11:59;8.00;99.90
22436;DHT22;11385;50.822;4.324;2023-02-20T08:14:25;8.00;99.90
22436;DHT22;11385;50.822;4.324;2023-02-20T08:16:53;8.10;99.90
22436;DHT22;11385;50.822;4.324;2023-02-20T08:19:20;8.00;99.90
22436;DHT22;11385;50.822;4.324;2023-02-20T08:21:48;8.00;99.90
22436;DHT22;11385;50.822;4.324;2023-02-20T08:24:15;8.10;99.90
22436;DHT22;11385;50.822;4.324;2023-02-20T08:26:43;8.10;99.90
22436;DHT22;11385;50.822;4.324;2023-02-20T08:29:10;8.20;99.90
22436;DHT22;11385;50.822;4.324;2023-02-20T08:31:37;8.10;99.90
22436;DHT22;11385;50.822;4.324;2023-02-20T08:34:04;8.20;99.90
22436;DHT22;11385;50.822;4.324;2023-02-20T08:36:30;8.20;99.90
22436;DHT22;11385;50.822;4.324;2023-02-20T08:38:57;8.20;99.90
22436;DHT22;11385;50.822;4.324;2023-02-20T08:41:25;8.30;99.90
22436;DHT22;11385;50.822;4.324;2023-02-20T08:43:52;8.20;99.90
22436;DHT22;11385;50.822;4.324;2023-02-20T08:46:19;8.20;99.90
22436;DHT22;11385;50.822;4.324;2023-02-20T08:48:46;8.20;99.90
22436;DHT22;11385;50.822;4.324;2023-02-20T08:51:12;8.30;99.90
22436;DHT22;11385;50.822;4.324;2023-02-20T08:53:39;8.40;99.90
22436;DHT22;11385;50.822;4.324;2023-02-20T08:56:06;8.30;99.90
22436;DHT22;11385;50.822;4.324;2023-02-20T08:58:34;8.20;99.90
22436;DHT22;11385;50.822;4.324;2023-02-20T09:01:01;8.40;99.90
22436;DHT22;11385;50.822;4.324;2023-02-20T09:03:27;8.40;99.90
22436;DHT22;11385;50.822;4.324;2023-02-20T09:05:54;8.40;99.90
22436;DHT22;11385;50.822;4.324;2023-02-20T09:08:20;8.50;99.90
22436;DHT22;11385;50.822;4.324;2023-02-20T09:10:47;8.50;99.90
22436;DHT22;11385;50.822;4.324;2023-02-20T09:13:14;8.50;99.90
22436;DHT22;11385;50.822;4.324;2023-02-20T09:15:40;8.40;99.90
22436;DHT22;11385;50.822;4.324;2023-02-20T09:18:10;8.50;99.90
22436;DHT22;11385;50.822;4.324;2023-02-20T09:20:37;8.50;99.90
22436;DHT22;11385;50.822;4.324;2023-02-20T09:23:06;8.60;99.90
22436;DHT22;11385;50.822;4.324;2023-02-20T09:25:34;8.60;99.90
22436;DHT22;11385;50.822;4.324;2023-02-20T09:28:01;8.70;99.90
22436;DHT22;11385;50.822;4.324;2023-02-20T09:30:28;8.60;99.90
22436;DHT22;11385;50.822;4.324;2023-02-20T09:32:55;8.60;99.90
22436;DHT22;11385;50.822;4.324;2023-02-20T09:35:24;8.60;99.90
22436;DHT22;11385;50.822;4.324;2023-02-20T09:37:53;8.60;99.90
22436;DHT22;11385;50.822;4.324;2023-02-20T09:40:24;8.60;99.90
22436;DHT22;11385;50.822;4.324;2023-02-20T09:43:05;8.60;99.90
22436;DHT22;11385;50.822;4.324;2023-02-20T09:45:32;8.60;99.90
22436;DHT22;11385;50.822;4.324;2023-02-20T09:48:10;8.60;99.90
22436;DHT22;11385;50.822;4.324;2023-02-20T09:50:41;8.60;99.90
22436;DHT22;11385;50.822;4.324;2023-02-20T09:53:17;8.70;99.90
22436;DHT22;11385;50.822;4.324;2023-02-20T09:55:43;8.70;99.90
22436;DHT22;11385;50.822;4.324;2023-02-20T10:00:46;8.60;99.90
22436;DHT22;11385;50.822;4.324;2023-02-20T10:03:27;8.80;99.90
22436;DHT22;11385;50.822;4.324;2023-02-20T10:05:54;8.70;99.90
22436;DHT22;11385;50.822;4.324;2023-02-20T10:08:22;8.70;99.90
22436;DHT22;11385;50.822;4.324;2023-02-20T10:10:51;8.70;99.90
22436;DHT22;11385;50.822;4.324;2023-02-20T10:13:43;8.70;99.90
22436;DHT22;11385;50.822;4.324;2023-02-20T10:16:35;8.70;99.90
22436;DHT22;11385;50.822;4.324;2023-02-20T10:19:08;8.90;99.90
22436;DHT22;11385;50.822;4.324;2023-02-20T10:21:44;8.90;99.90
22436;DHT22;11385;50.822;4.324;2023-02-20T10:24:34;9.00;99.90
22436;DHT22;11385;50.822;4.324;2023-02-20T10:27:24;9.00;99.90
22436;DHT22;11385;50.822;4.324;2023-02-20T10:29:46;9.00;99.90
22436;DHT22;11385;50.822;4.324;2023-02-20T10:32:18;9.20;99.90
22436;DHT22;11385;50.822;4.324;2023-02-20T10:34:54;9.30;99.90
22436;DHT22;11385;50.822;4.324;2023-02-20T10:37:24;9.20;99.90
22436;DHT22;11385;50.822;4.324;2023-02-20T10:39:58;9.20;99.90
22436;DHT22;11385;50.822;4.324;2023-02-20T10:42:31;9.30;99.90
22436;DHT22;11385;50.822;4.324;2023-02-20T10:45:12;9.20;99.90
22436;DHT22;11385;50.822;4.324;2023-02-20T10:47:48;9.20;99.90
22436;DHT22;11385;50.822;4.324;2023-02-20T10:50:29;9.20;99.90
22436;DHT22;11385;50.822;4.324;2023-02-20T10:53:07;9.00;99.90
22436;DHT22;11385;50.822;4.324;2023-02-20T10:55:38;9.10;99.90
22436;DHT22;11385;50.822;4.324;2023-02-20T10:58:12;9.20;99.90
22436;DHT22;11385;50.822;4.324;2023-02-20T11:00:44;9.20;99.90
22436;DHT22;11385;50.822;4.324;2023-02-20T11:03:11;9.10;99.90
22436;DHT22;11385;50.822;4.324;2023-02-20T11:05:43;9.10;99.90
22436;DHT22;11385;50.822;4.324;2023-02-20T11:08:10;9.20;99.90
22436;DHT22;11385;50.822;4.324;2023-02-20T11:10:36;9.30;99.90
22436;DHT22;11385;50.822;4.324;2023-02-20T11:13:04;9.30;99.90
22436;DHT22;11385;50.822;4.324;2023-02-20T11:15:33;9.30;99.90
22436;DHT22;11385;50.822;4.324;2023-02-20T11:18:03;9.30;99.90
22436;DHT22;11385;50.822;4.324;2023-02-20T11:20:40;9.20;99.90
22436;DHT22;11385;50.822;4.324;2023-02-20T11:23:07;9.20;99.90
22436;DHT22;11385;50.822;4.324;2023-02-20T11:25:37;9.20;99.90
22436;DHT22;11385;50.822;4.324;2023-02-20T11:28:23;9.00;99.90
22436;DHT22;11385;50.822;4.324;2023-02-20T11:31:04;9.10;99.90
22436;DHT22;11385;50.822;4.324;2023-02-20T11:33:35;9.00;99.90
22436;DHT22;11385;50.822;4.324;2023-02-20T11:36:13;8.90;99.90
22436;DHT22;11385;50.822;4.324;2023-02-20T11:38:41;9.00;99.90
22436;DHT22;11385;50.822;4.324;2023-02-20T11:41:20;9.10;99.90
22436;DHT22;11385;50.822;4.324;2023-02-20T11:43:45;9.10;99.90
22436;DHT22;11385;50.822;4.324;2023-02-20T11:46:18;9.00;99.90
22436;DHT22;11385;50.822;4.324;2023-02-20T11:49:06;9.00;99.90
22436;DHT22;11385;50.822;4.324;2023-02-20T11:51:38;9.20;99.90
22436;DHT22;11385;50.822;4.324;2023-02-20T11:54:16;9.20;99.90
22436;DHT22;11385;50.822;4.324;2023-02-20T11:59:44;9.20;99.90
22436;DHT22;11385;50.822;4.324;2023-02-20T12:02:27;9.20;99.90
22436;DHT22;11385;50.822;4.324;2023-02-20T12:05:04;9.30;99.90
22436;DHT22;11385;50.822;4.324;2023-02-20T12:10:26;9.50;99.90
22436;DHT22;11385;50.822;4.324;2023-02-20T12:12:53;9.60;99.90
22436;DHT22;11385;50.822;4.324;2023-02-20T12:15:23;9.50;99.90
22436;DHT22;11385;50.822;4.324;2023-02-20T12:18:20;9.60;99.90
22436;DHT22;11385;50.822;4.324;2023-02-20T12:20:52;9.80;99.90
22436;DHT22;11385;50.822;4.324;2023-02-20T12:23:25;9.50;99.90
22436;DHT22;11385;50.822;4.324;2023-02-20T12:28:36;9.70;99.90
22436;DHT22;11385;50.822;4.324;2023-02-20T12:31:19;9.80;99.90
22436;DHT22;11385;50.822;4.324;2023-02-20T12:34:02;9.60;99.90
22436;DHT22;11385;50.822;4.324;2023-02-20T12:36:38;9.40;99.90
22436;DHT22;11385;50.822;4.324;2023-02-20T12:39:27;9.50;99.90
22436;DHT22;11385;50.822;4.324;2023-02-20T12:42:01;9.50;99.90
22436;DHT22;11385;50.822;4.324;2023-02-20T12:44:38;9.60;99.90
22436;DHT22;11385;50.822;4.324;2023-02-20T12:47:37;9.60;99.90
22436;DHT22;11385;50.822;4.324;2023-02-20T12:50:09;9.70;99.90
22436;DHT22;11385;50.822;4.324;2023-02-20T12:52:57;9.70;99.90
22436;DHT22;11385;50.822;4.324;2023-02-20T12:55:48;9.80;99.90
22436;DHT22;11385;50.822;4.324;2023-02-20T12:58:43;9.70;99.90
22436;DHT22;11385;50.822;4.324;2023-02-20T13:01:11;9.90;99.90
22436;DHT22;11385;50.822;4.324;2023-02-20T13:06:24;9.80;99.90
22436;DHT22;11385;50.822;4.324;2023-02-20T13:09:20;9.90;99.90
22436;DHT22;11385;50.822;4.324;2023-02-20T13:11:51;9.80;99.90
22436;DHT22;11385;50.822;4.324;2023-02-20T13:17:22;9.90;99.90
22436;DHT22;11385;50.822;4.324;2023-02-20T13:19:57;9.70;99.90
22436;DHT22;11385;50.822;4.324;2023-02-20T13:22:24;9.80;99.90
22436;DHT22;11385;50.822;4.324;2023-02-20T13:24:51;9.70;99.90
22436;DHT22;11385;50.822;4.324;2023-02-20T13:27:27;9.60;99.90
22436;DHT22;11385;50.822;4.324;2023-02-20T13:29:58;9.80;99.90
22436;DHT22;11385;50.822;4.324;2023-02-20T13:32:29;9.60;99.90
22436;DHT22;11385;50.822;4.324;2023-02-20T13:37:52;9.60;99.90
22436;DHT22;11385;50.822;4.324;2023-02-20T13:40:45;9.80;99.90
22436;DHT22;11385;50.822;4.324;2023-02-20T13:43:23;9.80;99.90
22436;DHT22;11385;50.822;4.324;2023-02-20T13:45:49;9.80;99.90
22436;DHT22;11385;50.822;4.324;2023-02-20T13:53:28;9.70;99.90
22436;DHT22;11385;50.822;4.324;2023-02-20T13:55:54;9.60;99.90
22436;DHT22;11385;50.822;4.324;2023-02-20T13:58:21;9.50;99.90
22436;DHT22;11385;50.822;4.324;2023-02-20T14:00:51;9.50;99.90
22436;DHT22;11385;50.822;4.324;2023-02-20T14:03:23;9.50;99.90
22436;DHT22;11385;50.822;4.324;2023-02-20T14:06:00;9.70;99.90
22436;DHT22;11385;50.822;4.324;2023-02-20T14:08:27;9.80;99.90
22436;DHT22;11385;50.822;4.324;2023-02-20T14:10:54;9.80;99.90
22436;DHT22;11385;50.822;4.324;2023-02-20T14:13:22;9.70;99.90
22436;DHT22;11385;50.822;4.324;2023-02-20T14:15:53;9.60;99.90
22436;DHT22;11385;50.822;4.324;2023-02-20T14:18:26;9.60;99.90
22436;DHT22;11385;50.822;4.324;2023-02-20T14:21:04;9.70;99.90
22436;DHT22;11385;50.822;4.324;2023-02-20T14:23:32;9.70;99.90
22436;DHT22;11385;50.822;4.324;2023-02-20T14:26:03;9.90;99.90
22436;DHT22;11385;50.822;4.324;2023-02-20T14:28:33;9.80;99.90
22436;DHT22;11385;50.822;4.324;2023-02-20T14:31:22;9.80;99.90
22436;DHT22;11385;50.822;4.324;2023-02-20T14:33:59;9.80;99.90
22436;DHT22;11385;50.822;4.324;2023-02-20T14:36:39;9.90;99.90
22436;DHT22;11385;50.822;4.324;2023-02-20T14:39:13;9.90;99.90
22436;DHT22;11385;50.822;4.324;2023-02-20T14:41:49;9.90;99.90
22436;DHT22;11385;50.822;4.324;2023-02-20T14:44:13;9.80;99.90
22436;DHT22;11385;50.822;4.324;2023-02-20T14:46:46;9.70;99.90
22436;DHT22;11385;50.822;4.324;2023-02-20T14:49:24;9.70;99.90
22436;DHT22;11385;50.822;4.324;2023-02-20T14:52:02;9.80;99.90
22436;DHT22;11385;50.822;4.324;2023-02-20T14:54:24;9.90;99.90
22436;DHT22;11385;50.822;4.324;2023-02-20T14:56:53;9.90;99.90
22436;DHT22;11385;50.822;4.324;2023-02-20T14:59:37;9.80;99.90
22436;DHT22;11385;50.822;4.324;2023-02-20T15:02:18;9.80;99.90
22436;DHT22;11385;50.822;4.324;2023-02-20T15:04:49;9.90;99.90
22436;DHT22;11385;50.822;4.324;2023-02-20T15:07:16;9.90;99.90
22436;DHT22;11385;50.822;4.324;2023-02-20T15:09:46;10.10;99.90
22436;DHT22;11385;50.822;4.324;2023-02-20T15:12:21;10.00;99.90
22436;DHT22;11385;50.822;4.324;2023-02-20T15:15:05;9.90;99.90
22436;DHT22;11385;50.822;4.324;2023-02-20T15:17:34;9.80;99.90
22436;DHT22;11385;50.822;4.324;2023-02-20T15:22:41;9.90;99.90
22436;DHT22;11385;50.822;4.324;2023-02-20T15:30:26;9.90;99.90
22436;DHT22;11385;50.822;4.324;2023-02-20T15:32:53;9.90;99.90
22436;DHT22;11385;50.822;4.324;2023-02-20T15:35:25;9.90;99.90
22436;DHT22;11385;50.822;4.324;2023-02-20T15:37:55;9.80;99.90
22436;DHT22;11385;50.822;4.324;2023-02-20T15:40:28;9.90;99.90
22436;DHT22;11385;50.822;4.324;2023-02-20T15:42:55;9.90;99.90
22436;DHT22;11385;50.822;4.324;2023-02-20T15:45:27;9.80;99.90
22436;DHT22;11385;50.822;4.324;2023-02-20T15:47:55;9.80;99.90
22436;DHT22;11385;50.822;4.324;2023-02-20T15:50:22;9.80;99.90
22436;DHT22;11385;50.822;4.324;2023-02-20T15:52:49;9.70;99.90
22436;DHT22;11385;50.822;4.324;2023-02-20T15:55:18;9.70;99.90
22436;DHT22;11385;50.822;4.324;2023-02-20T15:57:47;9.70;99.90
22436;DHT22;11385;50.822;4.324;2023-02-20T16:00:19;9.70;99.90
22436;DHT22;11385;50.822;4.324;2023-02-20T16:02:47;9.80;99.90
22436;DHT22;11385;50.822;4.324;2023-02-20T16:05:14;9.60;99.90
22436;DHT22;11385;50.822;4.324;2023-02-20T16:07:41;9.60;99.90
22436;DHT22;11385;50.822;4.324;2023-02-20T16:10:08;9.60;99.90
22436;DHT22;11385;50.822;4.324;2023-02-20T16:12:36;9.50;99.90
22436;DHT22;11385;50.822;4.324;2023-02-20T16:15:05;9.60;99.90
22436;DHT22;11385;50.822;4.324;2023-02-20T16:17:33;9.50;99.90
22436;DHT22;11385;50.822;4.324;2023-02-20T16:20:00;9.50;99.90
22436;DHT22;11385;50.822;4.324;2023-02-20T16:22:27;9.50;99.90
22436;DHT22;11385;50.822;4.324;2023-02-20T16:24:54;9.50;99.90
22436;DHT22;11385;50.822;4.324;2023-02-20T16:27:23;9.40;99.90
22436;DHT22;11385;50.822;4.324;2023-02-20T16:29:53;9.50;99.90
22436;DHT22;11385;50.822;4.324;2023-02-20T16:32:26;9.50;99.90
22436;DHT22;11385;50.822;4.324;2023-02-20T16:34:55;9.50;99.90
22436;DHT22;11385;50.822;4.324;2023-02-20T16:37:22;9.50;99.90
22436;DHT22;11385;50.822;4.324;2023-02-20T16:39:50;9.50;99.90
22436;DHT22;11385;50.822;4.324;2023-02-20T16:42:23;9.40;99.90
22436;DHT22;11385;50.822;4.324;2023-02-20T16:44:51;9.50;99.90
22436;DHT22;11385;50.822;4.324;2023-02-20T16:47:23;9.40;99.90
22436;DHT22;11385;50.822;4.324;2023-02-20T16:49:50;9.40;99.90